sensor_id;sensor_type;location;lat;lon;timestamp;temperature;humidity
7516;DHT22;3799;47.184;8.538;2023-07-09T00:02:22;22.30;74.50
7516;DHT22;3799;47.184;8.538;2023-07-09T00:04:50;22.30;75.00
7516;DHT22;3799;47.184;8.538;2023-07-09T00:07:31;22.20;75.30
7516;DHT22;3799;47.184;8.538;2023-07-09T00:09:59;22.20;75.70
7516;DHT22;3799;47.184;8.538;2023-07-09T00:12:27;22.10;76.40
7516;DHT22;3799;47.184;8.538;2023-07-09T00:14:54;22.10;76.90
7516;DHT22;3799;47.184;8.538;2023-07-09T00:17:26;22.10;77.90
7516;DHT22;3799;47.184;8.538;2023-07-09T00:19:54;22.10;78.50
7516;DHT22;3799;47.184;8.538;2023-07-09T00:22:22;22.00;78.40
7516;DHT22;3799;47.184;8.538;2023-07-09T00:24:50;22.00;79.10
7516;DHT22;3799;47.184;8.538;2023-07-09T00:27:19;22.00;79.70
7516;DHT22;3799;47.184;8.538;2023-07-09T00:29:47;21.90;80.60
7516;DHT22;3799;47.184;8.538;2023-07-09T00:32:17;21.90;81.30
7516;DHT22;3799;47.184;8.538;2023-07-09T00:34:47;21.90;81.80
7516;DHT22;3799;47.184;8.538;2023-07-09T00:37:20;21.90;82.80
7516;DHT22;3799;47.184;8.538;2023-07-09T00:39:48;22.00;82.90
7516;DHT22;3799;47.184;8.538;2023-07-09T00:42:18;21.90;83.10
7516;DHT22;3799;47.184;8.538;2023-07-09T00:44:49;22.00;83.80
7516;DHT22;3799;47.184;8.538;2023-07-09T00:50:45;21.90;84.80
7516;DHT22;3799;47.184;8.538;2023-07-09T00:53:22;21.90;85.50
7516;DHT22;3799;47.184;8.538;2023-07-09T00:56:02;21.90;86.80
7516;DHT22;3799;47.184;8.538;2023-07-09T00:58:34;21.90;87.30
7516;DHT22;3799;47.184;8.538;2023-07-09T01:01:06;21.90;87.70
7516;DHT22;3799;47.184;8.538;2023-07-09T01:03:44;21.90;88.30
7516;DHT22;3799;47.184;8.538;2023-07-09T01:06:12;21.90;88.80
7516;DHT22;3799;47.184;8.538;2023-07-09T01:08:41;21.90;88.90
7516;DHT22;3799;47.184;8.538;2023-07-09T01:11:16;21.90;89.00
7516;DHT22;3799;47.184;8.538;2023-07-09T01:13:49;21.80;89.20
7516;DHT22;3799;47.184;8.538;2023-07-09T01:16:19;21.80;89.70
7516;DHT22;3799;47.184;8.538;2023-07-09T01:18:51;21.70;90.20
7516;DHT22;3799;47.184;8.538;2023-07-09T01:21:19;21.70;90.50
7516;DHT22;3799;47.184;8.538;2023-07-09T01:23:48;21.60;90.70
7516;DHT22;3799;47.184;8.538;2023-07-09T01:26:20;21.60;91.20
7516;DHT22;3799;47.184;8.538;2023-07-09T01:28:47;21.60;91.50
7516;DHT22;3799;47.184;8.538;2023-07-09T01:31:15;21.60;91.40
7516;DHT22;3799;47.184;8.538;2023-07-09T01:33:43;21.60;91.20
7516;DHT22;3799;47.184;8.538;2023-07-09T01:36:14;21.60;91.20
7516;DHT22;3799;47.184;8.538;2023-07-09T01:38:43;21.60;91.10
7516;DHT22;3799;47.184;8.538;2023-07-09T01:41:10;21.60;91.20
7516;DHT22;3799;47.184;8.538;2023-07-09T01:43:42;21.60;91.30
7516;DHT22;3799;47.184;8.538;2023-07-09T01:46:11;21.50;91.90
7516;DHT22;3799;47.184;8.538;2023-07-09T01:48:39;21.50;92.00
7516;DHT22;3799;47.184;8.538;2023-07-09T01:51:14;21.50;92.60
7516;DHT22;3799;47.184;8.538;2023-07-09T01:53:45;21.50;93.00
7516;DHT22;3799;47.184;8.538;2023-07-09T01:56:12;21.50;92.90
7516;DHT22;3799;47.184;8.538;2023-07-09T01:58:39;21.50;93.30
7516;DHT22;3799;47.184;8.538;2023-07-09T02:01:09;21.50;93.30
7516;DHT22;3799;47.184;8.538;2023-07-09T02:03:36;21.50;93.60
7516;DHT22;3799;47.184;8.538;2023-07-09T02:06:03;21.50;93.80
7516;DHT22;3799;47.184;8.538;2023-07-09T02:08:37;21.50;93.50
7516;DHT22;3799;47.184;8.538;2023-07-09T02:11:04;21.50;93.50
7516;DHT22;3799;47.184;8.538;2023-07-09T02:13:32;21.40;93.80
7516;DHT22;3799;47.184;8.538;2023-07-09T02:15:59;21.40;94.40
7516;DHT22;3799;47.184;8.538;2023-07-09T02:18:28;21.30;94.80
7516;DHT22;3799;47.184;8.538;2023-07-09T02:20:55;21.30;95.30
7516;DHT22;3799;47.184;8.538;2023-07-09T02:23:26;21.30;95.50
7516;DHT22;3799;47.184;8.538;2023-07-09T02:25:54;21.30;95.60
7516;DHT22;3799;47.184;8.538;2023-07-09T02:28:21;21.30;95.90
7516;DHT22;3799;47.184;8.538;2023-07-09T02:30:48;21.30;96.20
7516;DHT22;3799;47.184;8.538;2023-07-09T02:33:15;21.20;96.30
7516;DHT22;3799;47.184;8.538;2023-07-09T02:35:42;21.20;96.60
7516;DHT22;3799;47.184;8.538;2023-07-09T02:38:09;21.20;97.20
7516;DHT22;3799;47.184;8.538;2023-07-09T02:40:37;21.20;97.50
7516;DHT22;3799;47.184;8.538;2023-07-09T02:43:05;21.20;97.40
7516;DHT22;3799;47.184;8.538;2023-07-09T02:45:32;21.20;96.60
7516;DHT22;3799;47.184;8.538;2023-07-09T02:47:59;21.10;96.50
7516;DHT22;3799;47.184;8.538;2023-07-09T02:50:26;21.10;97.00
7516;DHT22;3799;47.184;8.538;2023-07-09T02:52:53;21.10;97.20
7516;DHT22;3799;47.184;8.538;2023-07-09T02:55:20;21.20;97.50
7516;DHT22;3799;47.184;8.538;2023-07-09T02:57:48;21.20;97.50
7516;DHT22;3799;47.184;8.538;2023-07-09T03:00:15;21.20;97.80
7516;DHT22;3799;47.184;8.538;2023-07-09T03:02:43;21.20;97.70
7516;DHT22;3799;47.184;8.538;2023-07-09T03:05:10;21.20;97.70
7516;DHT22;3799;47.184;8.538;2023-07-09T03:07:38;21.20;98.20
7516;DHT22;3799;47.184;8.538;2023-07-09T03:10:05;21.20;98.30
7516;DHT22;3799;47.184;8.538;2023-07-09T03:12:32;21.20;98.50
7516;DHT22;3799;47.184;8.538;2023-07-09T03:15:00;21.20;98.70
7516;DHT22;3799;47.184;8.538;2023-07-09T03:17:26;21.20;98.80
7516;DHT22;3799;47.184;8.538;2023-07-09T03:19:54;21.20;98.90
7516;DHT22;3799;47.184;8.538;2023-07-09T03:22:21;21.10;99.10
7516;DHT22;3799;47.184;8.538;2023-07-09T03:24:49;21.10;99.40
7516;DHT22;3799;47.184;8.538;2023-07-09T03:27:16;21.10;99.80
7516;DHT22;3799;47.184;8.538;2023-07-09T03:29:43;21.10;99.90
7516;DHT22;3799;47.184;8.538;2023-07-09T03:32:16;21.10;99.90
7516;DHT22;3799;47.184;8.538;2023-07-09T03:34:43;21.10;99.90
7516;DHT22;3799;47.184;8.538;2023-07-09T03:37:10;21.00;99.90
7516;DHT22;3799;47.184;8.538;2023-07-09T03:39:37;21.00;99.90
7516;DHT22;3799;47.184;8.538;2023-07-09T03:42:05;21.00;99.90
7516;DHT22;3799;47.184;8.538;2023-07-09T03:44:32;20.90;99.90
7516;DHT22;3799;47.184;8.538;2023-07-09T03:46:59;20.90;99.90
7516;DHT22;3799;47.184;8.538;2023-07-09T03:49:26;20.90;99.90
7516;DHT22;3799;47.184;8.538;2023-07-09T03:51:53;20.90;99.90
7516;DHT22;3799;47.184;8.538;2023-07-09T03:54:21;20.90;99.90
7516;DHT22;3799;47.184;8.538;2023-07-09T03:56:50;21.10;99.90
7516;DHT22;3799;47.184;8.538;2023-07-09T03:59:17;21.10;99.90
7516;DHT22;3799;47.184;8.538;2023-07-09T04:01:44;21.20;99.90
7516;DHT22;3799;47.184;8.538;2023-07-09T04:04:13;21.30;99.90
7516;DHT22;3799;47.184;8.538;2023-07-09T04:06:40;21.40;99.90
7516;DHT22;3799;47.184;8.538;2023-07-09T04:09:08;21.40;99.90
7516;DHT22;3799;47.184;8.538;2023-07-09T04:11:35;21.40;99.90
7516;DHT22;3799;47.184;8.538;2023-07-09T04:14:02;21.40;99.90
7516;DHT22;3799;47.184;8.538;2023-07-09T04:16:32;21.40;99.90
7516;DHT22;3799;47.184;8.538;2023-07-09T04:18:59;21.30;99.90
7516;DHT22;3799;47.184;8.538;2023-07-09T04:21:38;21.30;99.90
7516;DHT22;3799;47.184;8.538;2023-07-09T04:24:18;21.20;99.90
7516;DHT22;3799;47.184;8.538;2023-07-09T04:26:46;21.20;99.90
7516;DHT22;3799;47.184;8.538;2023-07-09T04:29:14;21.20;99.90
7516;DHT22;3799;47.184;8.538;2023-07-09T04:31:43;21.20;99.90
7516;DHT22;3799;47.184;8.538;2023-07-09T04:34:10;21.30;99.90
7516;DHT22;3799;47.184;8.538;2023-07-09T04:36:37;21.40;99.90
7516;DHT22;3799;47.184;8.538;2023-07-09T04:39:05;21.50;99.90
7516;DHT22;3799;47.184;8.538;2023-07-09T04:41:33;21.60;99.90
7516;DHT22;3799;47.184;8.538;2023-07-09T04:44:00;21.70;99.90
7516;DHT22;3799;47.184;8.538;2023-07-09T04:46:27;21.90;99.90
7516;DHT22;3799;47.184;8.538;2023-07-09T04:48:54;22.00;99.90
7516;DHT22;3799;47.184;8.538;2023-07-09T04:51:22;22.00;99.90
7516;DHT22;3799;47.184;8.538;2023-07-09T04:53:50;22.10;99.90
7516;DHT22;3799;47.184;8.538;2023-07-09T04:56:19;22.20;99.90
7516;DHT22;3799;47.184;8.538;2023-07-09T04:58:46;22.20;99.90
7516;DHT22;3799;47.184;8.538;2023-07-09T05:03:51;22.20;99.90
7516;DHT22;3799;47.184;8.538;2023-07-09T05:06:18;22.10;99.90
7516;DHT22;3799;47.184;8.538;2023-07-09T05:08:45;22.20;99.90
7516;DHT22;3799;47.184;8.538;2023-07-09T05:11:14;22.20;99.90
7516;DHT22;3799;47.184;8.538;2023-07-09T05:13:41;22.20;99.90
7516;DHT22;3799;47.184;8.538;2023-07-09T05:16:08;22.30;99.90
7516;DHT22;3799;47.184;8.538;2023-07-09T05:18:36;22.30;99.90
7516;DHT22;3799;47.184;8.538;2023-07-09T05:21:03;22.40;99.90
7516;DHT22;3799;47.184;8.538;2023-07-09T05:23:31;22.40;99.90
7516;DHT22;3799;47.184;8.538;2023-07-09T05:26:02;22.50;99.90
7516;DHT22;3799;47.184;8.538;2023-07-09T05:28:31;22.50;99.90
7516;DHT22;3799;47.184;8.538;2023-07-09T05:31:00;22.60;99.90
7516;DHT22;3799;47.184;8.538;2023-07-09T05:33:27;22.60;99.90
7516;DHT22;3799;47.184;8.538;2023-07-09T05:35:54;22.60;99.90
7516;DHT22;3799;47.184;8.538;2023-07-09T05:38:21;22.70;99.90
7516;DHT22;3799;47.184;8.538;2023-07-09T05:40:48;22.60;99.90
7516;DHT22;3799;47.184;8.538;2023-07-09T05:43:15;22.60;99.90
7516;DHT22;3799;47.184;8.538;2023-07-09T05:45:42;22.60;99.90
7516;DHT22;3799;47.184;8.538;2023-07-09T05:48:10;22.60;99.90
7516;DHT22;3799;47.184;8.538;2023-07-09T05:50:37;22.60;99.90
7516;DHT22;3799;47.184;8.538;2023-07-09T05:53:04;22.50;99.90
7516;DHT22;3799;47.184;8.538;2023-07-09T05:55:31;22.50;99.90
7516;DHT22;3799;47.184;8.538;2023-07-09T05:57:59;22.60;99.90
7516;DHT22;3799;47.184;8.538;2023-07-09T06:00:26;22.70;99.90
7516;DHT22;3799;47.184;8.538;2023-07-09T06:02:53;22.70;99.90
7516;DHT22;3799;47.184;8.538;2023-07-09T06:05:20;22.80;99.90
7516;DHT22;3799;47.184;8.538;2023-07-09T06:07:48;22.90;99.90
7516;DHT22;3799;47.184;8.538;2023-07-09T06:10:15;22.90;99.90
7516;DHT22;3799;47.184;8.538;2023-07-09T06:12:43;22.90;99.90
7516;DHT22;3799;47.184;8.538;2023-07-09T06:15:10;22.90;99.90
7516;DHT22;3799;47.184;8.538;2023-07-09T06:17:38;22.90;99.90
7516;DHT22;3799;47.184;8.538;2023-07-09T06:20:06;22.90;99.90
7516;DHT22;3799;47.184;8.538;2023-07-09T06:22:33;22.90;99.90
7516;DHT22;3799;47.184;8.538;2023-07-09T06:25:00;22.90;99.90
7516;DHT22;3799;47.184;8.538;2023-07-09T06:27:27;23.00;99.90
7516;DHT22;3799;47.184;8.538;2023-07-09T06:29:55;23.00;99.90
7516;DHT22;3799;47.184;8.538;2023-07-09T06:32:22;23.00;99.90
7516;DHT22;3799;47.184;8.538;2023-07-09T06:34:49;23.10;99.90
7516;DHT22;3799;47.184;8.538;2023-07-09T06:37:16;23.10;99.90
7516;DHT22;3799;47.184;8.538;2023-07-09T06:39:43;23.20;99.90
7516;DHT22;3799;47.184;8.538;2023-07-09T06:42:10;23.20;99.90
7516;DHT22;3799;47.184;8.538;2023-07-09T06:44:37;23.30;99.90
7516;DHT22;3799;47.184;8.538;2023-07-09T06:47:04;23.40;99.90
7516;DHT22;3799;47.184;8.538;2023-07-09T06:49:31;23.50;99.90
7516;DHT22;3799;47.184;8.538;2023-07-09T06:51:58;23.50;99.90
7516;DHT22;3799;47.184;8.538;2023-07-09T06:54:26;23.60;99.90
7516;DHT22;3799;47.184;8.538;2023-07-09T06:56:53;23.70;99.90
7516;DHT22;3799;47.184;8.538;2023-07-09T06:59:20;23.80;99.90
7516;DHT22;3799;47.184;8.538;2023-07-09T07:01:52;23.90;99.90
7516;DHT22;3799;47.184;8.538;2023-07-09T07:04:19;24.00;99.80
7516;DHT22;3799;47.184;8.538;2023-07-09T07:06:46;24.10;99.70
7516;DHT22;3799;47.184;8.538;2023-07-09T07:09:16;24.10;99.60
7516;DHT22;3799;47.184;8.538;2023-07-09T07:11:44;24.20;99.40
7516;DHT22;3799;47.184;8.538;2023-07-09T07:14:11;24.20;99.50
7516;DHT22;3799;47.184;8.538;2023-07-09T07:16:40;24.20;99.40
7516;DHT22;3799;47.184;8.538;2023-07-09T07:19:07;24.30;99.40
7516;DHT22;3799;47.184;8.538;2023-07-09T07:21:36;24.40;99.30
7516;DHT22;3799;47.184;8.538;2023-07-09T07:24:03;24.50;99.00
7516;DHT22;3799;47.184;8.538;2023-07-09T07:26:31;24.60;98.90
7516;DHT22;3799;47.184;8.538;2023-07-09T07:28:58;24.60;98.80
7516;DHT22;3799;47.184;8.538;2023-07-09T07:31:25;24.70;98.40
7516;DHT22;3799;47.184;8.538;2023-07-09T07:33:52;24.80;98.10
7516;DHT22;3799;47.184;8.538;2023-07-09T07:36:19;24.80;97.60
7516;DHT22;3799;47.184;8.538;2023-07-09T07:38:56;24.90;97.30
7516;DHT22;3799;47.184;8.538;2023-07-09T07:41:24;24.90;97.10
7516;DHT22;3799;47.184;8.538;2023-07-09T07:43:51;24.80;96.90
7516;DHT22;3799;47.184;8.538;2023-07-09T07:46:18;24.90;96.90
7516;DHT22;3799;47.184;8.538;2023-07-09T07:48:46;24.90;96.70
7516;DHT22;3799;47.184;8.538;2023-07-09T07:51:13;25.00;96.30
7516;DHT22;3799;47.184;8.538;2023-07-09T07:53:40;25.10;95.90
7516;DHT22;3799;47.184;8.538;2023-07-09T07:56:08;25.10;95.20
7516;DHT22;3799;47.184;8.538;2023-07-09T07:58:35;25.10;95.20
7516;DHT22;3799;47.184;8.538;2023-07-09T08:01:02;25.20;95.10
7516;DHT22;3799;47.184;8.538;2023-07-09T08:03:30;25.30;94.50
7516;DHT22;3799;47.184;8.538;2023-07-09T08:05:57;25.40;94.40
7516;DHT22;3799;47.184;8.538;2023-07-09T08:08:28;25.40;94.40
7516;DHT22;3799;47.184;8.538;2023-07-09T08:11:06;25.50;94.20
7516;DHT22;3799;47.184;8.538;2023-07-09T08:13:35;25.50;93.90
7516;DHT22;3799;47.184;8.538;2023-07-09T08:16:04;25.50;93.60
7516;DHT22;3799;47.184;8.538;2023-07-09T08:18:32;25.60;93.30
7516;DHT22;3799;47.184;8.538;2023-07-09T08:21:00;25.60;92.90
7516;DHT22;3799;47.184;8.538;2023-07-09T08:23:27;25.70;92.70
7516;DHT22;3799;47.184;8.538;2023-07-09T08:25:58;25.80;92.50
7516;DHT22;3799;47.184;8.538;2023-07-09T08:28:26;25.90;92.10
7516;DHT22;3799;47.184;8.538;2023-07-09T08:30:54;25.90;91.60
7516;DHT22;3799;47.184;8.538;2023-07-09T08:33:25;26.00;91.20
7516;DHT22;3799;47.184;8.538;2023-07-09T08:35:53;26.10;91.00
7516;DHT22;3799;47.184;8.538;2023-07-09T08:38:21;26.20;90.50
7516;DHT22;3799;47.184;8.538;2023-07-09T08:46:27;26.50;87.90
7516;DHT22;3799;47.184;8.538;2023-07-09T08:48:57;26.60;86.90
7516;DHT22;3799;47.184;8.538;2023-07-09T08:51:31;26.70;85.10
7516;DHT22;3799;47.184;8.538;2023-07-09T08:54:00;26.80;84.10
7516;DHT22;3799;47.184;8.538;2023-07-09T08:56:32;26.90;83.70
7516;DHT22;3799;47.184;8.538;2023-07-09T08:59:02;27.00;82.80
7516;DHT22;3799;47.184;8.538;2023-07-09T09:01:41;27.10;82.00
7516;DHT22;3799;47.184;8.538;2023-07-09T09:04:25;27.30;80.80
7516;DHT22;3799;47.184;8.538;2023-07-09T09:09:54;27.50;78.30
7516;DHT22;3799;47.184;8.538;2023-07-09T09:14:58;27.80;77.00
7516;DHT22;3799;47.184;8.538;2023-07-09T09:17:27;27.90;76.30
7516;DHT22;3799;47.184;8.538;2023-07-09T09:20:01;28.00;75.40
7516;DHT22;3799;47.184;8.538;2023-07-09T09:23:13;28.20;74.70
7516;DHT22;3799;47.184;8.538;2023-07-09T09:25:33;28.30;74.00
7516;DHT22;3799;47.184;8.538;2023-07-09T09:28:02;28.40;73.30
7516;DHT22;3799;47.184;8.538;2023-07-09T09:30:30;28.60;72.30
7516;DHT22;3799;47.184;8.538;2023-07-09T09:33:00;28.70;71.70
7516;DHT22;3799;47.184;8.538;2023-07-09T09:35:29;28.80;70.60
7516;DHT22;3799;47.184;8.538;2023-07-09T09:37:58;28.90;69.60
7516;DHT22;3799;47.184;8.538;2023-07-09T09:40:28;29.00;68.90
7516;DHT22;3799;47.184;8.538;2023-07-09T09:42:57;29.20;68.30
7516;DHT22;3799;47.184;8.538;2023-07-09T09:45:33;29.30;67.00
7516;DHT22;3799;47.184;8.538;2023-07-09T09:48:10;29.40;65.90
7516;DHT22;3799;47.184;8.538;2023-07-09T09:50:41;29.60;65.00
7516;DHT22;3799;47.184;8.538;2023-07-09T09:53:09;29.70;63.90
7516;DHT22;3799;47.184;8.538;2023-07-09T09:55:39;29.90;63.20
7516;DHT22;3799;47.184;8.538;2023-07-09T09:58:14;30.10;62.40
7516;DHT22;3799;47.184;8.538;2023-07-09T10:00:51;30.20;60.80
7516;DHT22;3799;47.184;8.538;2023-07-09T10:03:19;30.30;60.00
7516;DHT22;3799;47.184;8.538;2023-07-09T10:05:59;30.40;59.50
7516;DHT22;3799;47.184;8.538;2023-07-09T10:08:58;30.50;59.00
7516;DHT22;3799;47.184;8.538;2023-07-09T10:11:47;30.70;58.40
7516;DHT22;3799;47.184;8.538;2023-07-09T10:17:04;31.00;57.40
7516;DHT22;3799;47.184;8.538;2023-07-09T10:19:43;31.10;57.10
7516;DHT22;3799;47.184;8.538;2023-07-09T10:25:09;31.40;56.00
7516;DHT22;3799;47.184;8.538;2023-07-09T10:33:11;31.80;54.60
7516;DHT22;3799;47.184;8.538;2023-07-09T10:38:55;32.10;53.80
7516;DHT22;3799;47.184;8.538;2023-07-09T10:41:25;32.30;53.40
7516;DHT22;3799;47.184;8.538;2023-07-09T10:46:35;32.60;51.80
7516;DHT22;3799;47.184;8.538;2023-07-09T10:49:07;32.70;51.70
7516;DHT22;3799;47.184;8.538;2023-07-09T10:51:46;32.80;51.00
7516;DHT22;3799;47.184;8.538;2023-07-09T10:54:35;32.90;50.10
7516;DHT22;3799;47.184;8.538;2023-07-09T10:57:17;33.00;48.90
7516;DHT22;3799;47.184;8.538;2023-07-09T10:59:48;33.20;47.90
7516;DHT22;3799;47.184;8.538;2023-07-09T11:02:46;33.30;46.10
7516;DHT22;3799;47.184;8.538;2023-07-09T11:05:15;33.40;45.90
7516;DHT22;3799;47.184;8.538;2023-07-09T11:08:11;33.50;45.50
7516;DHT22;3799;47.184;8.538;2023-07-09T11:10:56;33.60;44.60
7516;DHT22;3799;47.184;8.538;2023-07-09T11:13:39;33.70;43.80
7516;DHT22;3799;47.184;8.538;2023-07-09T11:16:35;33.90;45.00
7516;DHT22;3799;47.184;8.538;2023-07-09T11:19:14;34.10;45.30
7516;DHT22;3799;47.184;8.538;2023-07-09T11:21:56;34.30;43.70
7516;DHT22;3799;47.184;8.538;2023-07-09T11:24:44;34.50;42.80
7516;DHT22;3799;47.184;8.538;2023-07-09T11:27:27;34.60;42.30
7516;DHT22;3799;47.184;8.538;2023-07-09T11:30:18;34.70;41.60
7516;DHT22;3799;47.184;8.538;2023-07-09T11:32:47;34.80;40.90
7516;DHT22;3799;47.184;8.538;2023-07-09T11:36:06;35.00;40.30
7516;DHT22;3799;47.184;8.538;2023-07-09T11:38:17;35.10;39.60
7516;DHT22;3799;47.184;8.538;2023-07-09T11:40:53;35.10;39.00
7516;DHT22;3799;47.184;8.538;2023-07-09T11:46:01;35.30;38.90
7516;DHT22;3799;47.184;8.538;2023-07-09T11:48:33;35.50;38.90
7516;DHT22;3799;47.184;8.538;2023-07-09T11:51:08;35.60;37.90
7516;DHT22;3799;47.184;8.538;2023-07-09T11:53:52;35.60;37.80
7516;DHT22;3799;47.184;8.538;2023-07-09T11:56:21;35.80;37.70
7516;DHT22;3799;47.184;8.538;2023-07-09T11:58:55;35.90;37.40
7516;DHT22;3799;47.184;8.538;2023-07-09T12:01:26;36.00;37.10
7516;DHT22;3799;47.184;8.538;2023-07-09T12:03:56;36.10;36.80
7516;DHT22;3799;47.184;8.538;2023-07-09T12:06:28;36.10;36.40
7516;DHT22;3799;47.184;8.538;2023-07-09T12:08:56;36.10;36.10
7516;DHT22;3799;47.184;8.538;2023-07-09T12:11:33;36.20;35.80
7516;DHT22;3799;47.184;8.538;2023-07-09T12:14:03;36.30;35.50
7516;DHT22;3799;47.184;8.538;2023-07-09T12:16:34;36.40;35.50
7516;DHT22;3799;47.184;8.538;2023-07-09T12:19:02;36.50;35.70
7516;DHT22;3799;47.184;8.538;2023-07-09T12:21:31;36.60;35.60
7516;DHT22;3799;47.184;8.538;2023-07-09T12:23:59;36.70;35.60
7516;DHT22;3799;47.184;8.538;2023-07-09T12:26:30;36.80;35.50
7516;DHT22;3799;47.184;8.538;2023-07-09T12:28:58;36.90;35.00
7516;DHT22;3799;47.184;8.538;2023-07-09T12:31:28;37.00;34.50
7516;DHT22;3799;47.184;8.538;2023-07-09T12:33:58;37.10;34.50
7516;DHT22;3799;47.184;8.538;2023-07-09T12:36:26;37.20;34.20
7516;DHT22;3799;47.184;8.538;2023-07-09T12:39:00;37.30;33.30
7516;DHT22;3799;47.184;8.538;2023-07-09T12:41:38;37.40;32.90
7516;DHT22;3799;47.184;8.538;2023-07-09T12:44:27;37.60;32.10
7516;DHT22;3799;47.184;8.538;2023-07-09T12:46:59;37.60;32.50
7516;DHT22;3799;47.184;8.538;2023-07-09T12:49:29;37.70;32.50
7516;DHT22;3799;47.184;8.538;2023-07-09T12:51:58;37.80;32.60
7516;DHT22;3799;47.184;8.538;2023-07-09T12:54:30;37.80;32.80
7516;DHT22;3799;47.184;8.538;2023-07-09T12:57:13;37.90;32.80
7516;DHT22;3799;47.184;8.538;2023-07-09T12:59:41;38.00;33.00
7516;DHT22;3799;47.184;8.538;2023-07-09T13:02:20;38.20;33.90
7516;DHT22;3799;47.184;8.538;2023-07-09T13:04:49;38.30;34.50
7516;DHT22;3799;47.184;8.538;2023-07-09T13:07:27;38.40;34.90
7516;DHT22;3799;47.184;8.538;2023-07-09T13:09:57;38.60;34.70
7516;DHT22;3799;47.184;8.538;2023-07-09T13:12:30;38.60;33.90
7516;DHT22;3799;47.184;8.538;2023-07-09T13:14:58;38.70;33.40
7516;DHT22;3799;47.184;8.538;2023-07-09T13:17:31;38.90;33.00
7516;DHT22;3799;47.184;8.538;2023-07-09T13:19:58;39.00;32.90
7516;DHT22;3799;47.184;8.538;2023-07-09T13:22:28;39.00;33.30
7516;DHT22;3799;47.184;8.538;2023-07-09T13:24:55;39.10;33.00
7516;DHT22;3799;47.184;8.538;2023-07-09T13:27:23;39.10;32.20
7516;DHT22;3799;47.184;8.538;2023-07-09T13:29:51;39.20;31.50
7516;DHT22;3799;47.184;8.538;2023-07-09T13:32:18;39.30;31.10
7516;DHT22;3799;47.184;8.538;2023-07-09T13:34:49;39.30;30.70
7516;DHT22;3799;47.184;8.538;2023-07-09T13:37:16;39.40;31.20
7516;DHT22;3799;47.184;8.538;2023-07-09T13:39:43;39.40;31.30
7516;DHT22;3799;47.184;8.538;2023-07-09T13:42:14;39.50;30.90
7516;DHT22;3799;47.184;8.538;2023-07-09T13:44:44;39.50;30.40
7516;DHT22;3799;47.184;8.538;2023-07-09T13:47:13;39.60;30.00
7516;DHT22;3799;47.184;8.538;2023-07-09T13:49:44;39.70;29.80
7516;DHT22;3799;47.184;8.538;2023-07-09T13:52:30;39.60;29.80
7516;DHT22;3799;47.184;8.538;2023-07-09T13:54:57;39.70;29.40
7516;DHT22;3799;47.184;8.538;2023-07-09T13:57:25;39.80;29.30
7516;DHT22;3799;47.184;8.538;2023-07-09T13:59:52;39.70;29.20
7516;DHT22;3799;47.184;8.538;2023-07-09T14:02:29;39.70;29.50
7516;DHT22;3799;47.184;8.538;2023-07-09T14:05:01;39.70;29.70
7516;DHT22;3799;47.184;8.538;2023-07-09T14:07:37;39.80;29.90
7516;DHT22;3799;47.184;8.538;2023-07-09T14:10:09;39.90;29.80
7516;DHT22;3799;47.184;8.538;2023-07-09T14:12:40;40.00;29.60
7516;DHT22;3799;47.184;8.538;2023-07-09T14:15:16;40.20;30.00
7516;DHT22;3799;47.184;8.538;2023-07-09T14:17:44;40.30;29.80
7516;DHT22;3799;47.184;8.538;2023-07-09T14:20:13;40.40;29.20
7516;DHT22;3799;47.184;8.538;2023-07-09T14:22:42;40.50;29.00
7516;DHT22;3799;47.184;8.538;2023-07-09T14:25:22;40.60;28.80
7516;DHT22;3799;47.184;8.538;2023-07-09T14:27:51;40.60;28.70
7516;DHT22;3799;47.184;8.538;2023-07-09T14:30:21;40.70;28.90
7516;DHT22;3799;47.184;8.538;2023-07-09T14:32:49;40.70;29.30
7516;DHT22;3799;47.184;8.538;2023-07-09T14:35:23;40.60;29.30
7516;DHT22;3799;47.184;8.538;2023-07-09T14:37:52;40.60;29.50
7516;DHT22;3799;47.184;8.538;2023-07-09T14:40:21;40.50;29.60
7516;DHT22;3799;47.184;8.538;2023-07-09T14:42:49;40.30;29.60
7516;DHT22;3799;47.184;8.538;2023-07-09T14:45:22;40.20;29.90
7516;DHT22;3799;47.184;8.538;2023-07-09T14:47:54;39.90;29.50
7516;DHT22;3799;47.184;8.538;2023-07-09T14:50:23;39.60;29.60
7516;DHT22;3799;47.184;8.538;2023-07-09T14:52:51;39.30;29.70
7516;DHT22;3799;47.184;8.538;2023-07-09T14:55:22;39.00;30.00
7516;DHT22;3799;47.184;8.538;2023-07-09T14:57:51;38.70;30.60
7516;DHT22;3799;47.184;8.538;2023-07-09T15:00:21;38.50;30.00
7516;DHT22;3799;47.184;8.538;2023-07-09T15:02:50;38.20;30.60
7516;DHT22;3799;47.184;8.538;2023-07-09T15:05:23;37.80;31.10
7516;DHT22;3799;47.184;8.538;2023-07-09T15:07:51;37.40;31.80
7516;DHT22;3799;47.184;8.538;2023-07-09T15:10:24;37.20;31.50
7516;DHT22;3799;47.184;8.538;2023-07-09T15:12:51;36.90;31.90
7516;DHT22;3799;47.184;8.538;2023-07-09T15:15:30;36.70;32.10
7516;DHT22;3799;47.184;8.538;2023-07-09T15:18:00;36.60;32.50
7516;DHT22;3799;47.184;8.538;2023-07-09T15:20:36;36.50;32.70
7516;DHT22;3799;47.184;8.538;2023-07-09T15:23:03;36.50;33.20
7516;DHT22;3799;47.184;8.538;2023-07-09T15:25:31;36.50;33.30
7516;DHT22;3799;47.184;8.538;2023-07-09T15:27:58;36.60;33.10
7516;DHT22;3799;47.184;8.538;2023-07-09T15:30:28;36.70;33.40
7516;DHT22;3799;47.184;8.538;2023-07-09T15:32:58;37.00;33.50
7516;DHT22;3799;47.184;8.538;2023-07-09T15:35:35;37.30;33.90
7516;DHT22;3799;47.184;8.538;2023-07-09T15:38:12;37.40;33.10
7516;DHT22;3799;47.184;8.538;2023-07-09T15:40:43;37.40;32.40
7516;DHT22;3799;47.184;8.538;2023-07-09T15:43:14;37.30;31.20
7516;DHT22;3799;47.184;8.538;2023-07-09T15:45:46;37.10;31.30
7516;DHT22;3799;47.184;8.538;2023-07-09T15:48:22;36.80;31.50
7516;DHT22;3799;47.184;8.538;2023-07-09T15:50:50;36.50;31.70
7516;DHT22;3799;47.184;8.538;2023-07-09T15:53:17;36.20;31.70
7516;DHT22;3799;47.184;8.538;2023-07-09T15:55:45;36.00;31.50
7516;DHT22;3799;47.184;8.538;2023-07-09T15:58:33;35.70;31.50
7516;DHT22;3799;47.184;8.538;2023-07-09T16:01:02;35.50;31.90
7516;DHT22;3799;47.184;8.538;2023-07-09T16:03:30;35.40;32.20
7516;DHT22;3799;47.184;8.538;2023-07-09T16:05:57;35.30;32.80
7516;DHT22;3799;47.184;8.538;2023-07-09T16:08:24;35.20;33.00
7516;DHT22;3799;47.184;8.538;2023-07-09T16:10:51;35.10;33.30
7516;DHT22;3799;47.184;8.538;2023-07-09T16:13:21;34.90;33.70
7516;DHT22;3799;47.184;8.538;2023-07-09T16:15:49;34.80;34.10
7516;DHT22;3799;47.184;8.538;2023-07-09T16:18:17;34.70;33.90
7516;DHT22;3799;47.184;8.538;2023-07-09T16:20:44;34.70;34.00
7516;DHT22;3799;47.184;8.538;2023-07-09T16:23:17;34.60;34.00
7516;DHT22;3799;47.184;8.538;2023-07-09T16:25:45;34.50;33.80
7516;DHT22;3799;47.184;8.538;2023-07-09T16:28:14;34.40;34.00
7516;DHT22;3799;47.184;8.538;2023-07-09T16:30:41;34.30;34.20
7516;DHT22;3799;47.184;8.538;2023-07-09T16:33:09;34.10;34.00
7516;DHT22;3799;47.184;8.538;2023-07-09T16:35:36;34.00;33.70
7516;DHT22;3799;47.184;8.538;2023-07-09T16:38:03;33.90;34.20
7516;DHT22;3799;47.184;8.538;2023-07-09T16:40:31;33.80;34.40
7516;DHT22;3799;47.184;8.538;2023-07-09T16:43:00;33.70;34.60
7516;DHT22;3799;47.184;8.538;2023-07-09T16:45:29;33.60;34.90
7516;DHT22;3799;47.184;8.538;2023-07-09T16:47:57;33.50;35.20
7516;DHT22;3799;47.184;8.538;2023-07-09T16:50:25;33.50;35.60
7516;DHT22;3799;47.184;8.538;2023-07-09T16:52:53;33.40;35.60
7516;DHT22;3799;47.184;8.538;2023-07-09T16:55:24;33.30;35.90
7516;DHT22;3799;47.184;8.538;2023-07-09T16:57:57;33.10;36.00
7516;DHT22;3799;47.184;8.538;2023-07-09T17:00:30;33.00;37.00